NGTA

Details ICAO NGTA (TRW)
Name Bonriki International
Region Kiribati and Tuvalu
Timezone Pacific/Tarawa (UTC+12.0)
Plans Departing 31
Arriving 31
Stats Elevation 9 ft / 3 m (AMSL)
Location 1.381608° 173.146907°
Runways 1
Magnetic Variation 9.242° E
Sunrise 2018-05-21 18:19:52 UTC / 2018-05-22 06:19:52 Local
Sunset 2018-05-22 06:31:04 UTC / 2018-05-22 18:31:04 Local
Advertisement - Login to hide

Runways

ID Width Length Bearing (true) Bearing (mag) Surface Threshold Offset Overrun Length
09 131 ft / 40 m 6,622 ft / 2,018 m 97.30° 88.06° Asphalt 0 ft / 0 m 213 ft / 65 m
27 131 ft / 40 m 6,622 ft / 2,018 m 277.30° 268.06° Asphalt 269 ft / 82 m 197 ft / 60 m

Map

Weather


0- 5 10 15 20 25 30 35+ Temperature / ° C

Clouds and Precipitation
Forecast for 2018-05-22 06:00 UTC. Updated 2 hours ago

Ground ~20,000 ft ~40,000 ft Winds

METAR

NGTA 220700Z 09012KT 9999 SCT019 BKN100 29/25 Q1009

TAF

TAF NGTA 220521Z 2206/2306 11010KT 9999 SCT018 SCT040 TEMPO 2206/2212 5000 SHRA BKN016

Frequencies

Unicom 118.10 MHz TARAWA RDO
Tower 118.10 MHz FSS
Unicom 118.50 MHz TARAWA RDO
Tower 118.50 MHz FSS
Warning: Do not use this data for real-world aviation or navigation. No guarantee of current accuracy is given.